Time;durP1;ratioP1;P1;durP2;ratioP2;P2;SDS_P1;SDS_P2;PMS_P1;PMS_P2;Temp;Humidity;BMP_temperature;BMP_pressure;BME280_temperature;BME280_humidity;BME280_pressure;Samples;Min_cycle;Max_cycle;Signal;HPM_P1;HPM_P2
2022/06/30 00:00:14;;;;;;;;;;;14.10;99.90;;;;;;5003750;28;19940;-58
2022/06/30 00:02:40;;;;;;;;;;;14.10;99.90;;;;;;5007860;28;19944;-57
2022/06/30 00:05:05;;;;;;;;;;;14.10;99.90;;;;;;5005790;28;20313;-57
2022/06/30 00:07:31;;;;;;;;;;;14.20;99.90;;;;;;5004753;28;20334;-56
2022/06/30 00:09:56;;;;;;;;;;;14.30;99.90;;;;;;5006644;28;20406;-58
2022/06/30 00:12:22;;;;;;;;;;;14.20;99.90;;;;;;5007339;28;20422;-57
2022/06/30 00:14:47;;;;;;;;;;;14.20;99.90;;;;;;5008931;28;20327;-58
2022/06/30 00:17:13;;;;;;;;;;;14.20;99.90;;;;;;5009440;28;20008;-57
2022/06/30 00:19:39;;;;;;;;;;;14.20;99.90;;;;;;5008093;28;19921;-55
2022/06/30 00:22:06;;;;;;;;;;;14.20;99.90;;;;;;5009306;28;21543;-55
2022/06/30 00:24:32;;;;;;;;;;;14.20;99.90;;;;;;5004920;28;20426;-58
2022/06/30 00:26:58;;;;;;;;;;;14.20;99.90;;;;;;5007375;28;19922;-56
2022/06/30 00:29:23;;;;;;;;;;;14.10;99.90;;;;;;5007729;28;19917;-55
2022/06/30 00:31:49;;;;;;;;;;;14.10;99.90;;;;;;5003975;28;19913;-57
2022/06/30 00:34:14;;;;;;;;;;;14.10;99.90;;;;;;5007032;28;19980;-58
2022/06/30 00:36:40;;;;;;;;;;;14.00;99.90;;;;;;5006485;28;19995;-56
2022/06/30 00:39:06;;;;;;;;;;;14.10;99.90;;;;;;4985694;28;19920;-53
2022/06/30 00:41:31;;;;;;;;;;;14.00;99.90;;;;;;5008447;28;20278;-57
2022/06/30 00:43:57;;;;;;;;;;;14.10;99.90;;;;;;4998832;28;19918;-54
2022/06/30 00:46:23;;;;;;;;;;;14.10;99.90;;;;;;5004656;28;19921;-56
2022/06/30 00:48:49;;;;;;;;;;;14.10;99.90;;;;;;5005924;28;19913;-57
2022/06/30 00:51:14;;;;;;;;;;;14.10;99.90;;;;;;5003849;28;20505;-56
2022/06/30 00:53:40;;;;;;;;;;;14.10;99.90;;;;;;5007189;28;19917;-56
2022/06/30 00:56:07;;;;;;;;;;;14.00;99.90;;;;;;5006597;28;19913;-56
2022/06/30 00:58:40;;;;;;;;;;;14.00;99.90;;;;;;4990596;28;19975;-60
2022/06/30 01:01:10;;;;;;;;;;;14.00;99.90;;;;;;5005699;28;19913;-57
2022/06/30 01:03:36;;;;;;;;;;;14.10;99.90;;;;;;4991923;28;19939;-58
2022/06/30 01:06:02;;;;;;;;;;;14.10;99.90;;;;;;5004750;28;19940;-59
2022/06/30 01:08:31;;;;;;;;;;;14.00;99.90;;;;;;5005688;28;19917;-55
2022/06/30 01:13:41;;;;;;;;;;;14.10;99.90;;;;;;5009098;28;20017;-59
2022/06/30 01:16:07;;;;;;;;;;;14.00;99.90;;;;;;5003976;28;20016;-52
2022/06/30 01:18:33;;;;;;;;;;;14.00;99.90;;;;;;5008255;28;19913;-58
2022/06/30 01:20:59;;;;;;;;;;;13.90;99.90;;;;;;5004692;28;19914;-56
2022/06/30 01:23:25;;;;;;;;;;;13.90;99.90;;;;;;5003283;28;19921;-57
2022/06/30 01:25:51;;;;;;;;;;;13.90;99.90;;;;;;5004746;28;20314;-55
2022/06/30 01:28:17;;;;;;;;;;;13.90;99.90;;;;;;4987941;28;19965;-56
2022/06/30 01:30:43;;;;;;;;;;;14.00;99.90;;;;;;5003269;28;20570;-59
2022/06/30 01:33:09;;;;;;;;;;;13.90;99.90;;;;;;5004870;28;19917;-56
2022/06/30 01:35:34;;;;;;;;;;;14.00;99.90;;;;;;4990361;28;19920;-58
2022/06/30 01:38:00;;;;;;;;;;;13.90;99.90;;;;;;5006107;28;19914;-55
2022/06/30 01:40:27;;;;;;;;;;;13.90;99.90;;;;;;5008666;28;19925;-58
2022/06/30 01:42:53;;;;;;;;;;;13.90;99.90;;;;;;5006442;28;19921;-55
2022/06/30 01:45:19;;;;;;;;;;;13.70;99.90;;;;;;5004188;28;19924;-57
2022/06/30 01:47:44;;;;;;;;;;;13.90;99.90;;;;;;5007437;28;19925;-55
2022/06/30 01:50:15;;;;;;;;;;;13.80;99.90;;;;;;5001995;28;19918;-58
2022/06/30 01:52:40;;;;;;;;;;;13.80;99.90;;;;;;5000375;28;19922;-55
2022/06/30 01:55:09;;;;;;;;;;;13.80;99.90;;;;;;5005155;28;19917;-57
2022/06/30 01:57:35;;;;;;;;;;;13.80;99.90;;;;;;5005893;28;19913;-55
2022/06/30 02:00:02;;;;;;;;;;;13.80;99.90;;;;;;4983752;28;19913;-56
2022/06/30 02:02:28;;;;;;;;;;;14.00;99.90;;;;;;5008674;28;20008;-55
2022/06/30 02:04:54;;;;;;;;;;;14.10;99.90;;;;;;5001685;28;20413;-55
2022/06/30 02:07:20;;;;;;;;;;;14.20;99.90;;;;;;5006694;28;20366;-54
2022/06/30 02:09:46;;;;;;;;;;;14.10;99.90;;;;;;5002730;28;19928;-57
2022/06/30 02:14:57;;;;;;;;;;;14.10;99.90;;;;;;5004015;28;20012;-54
2022/06/30 02:17:22;;;;;;;;;;;14.00;99.90;;;;;;5001921;28;19922;-56
2022/06/30 02:19:48;;;;;;;;;;;13.90;99.90;;;;;;5005112;28;19920;-55
2022/06/30 02:22:14;;;;;;;;;;;13.80;99.90;;;;;;4989883;28;19917;-56
2022/06/30 02:24:39;;;;;;;;;;;13.90;99.90;;;;;;5005237;28;19917;-57
2022/06/30 02:27:05;;;;;;;;;;;13.90;99.90;;;;;;4983450;28;19917;-56
2022/06/30 02:29:31;;;;;;;;;;;13.90;99.90;;;;;;5005905;28;20303;-55
2022/06/30 02:31:56;;;;;;;;;;;13.90;99.90;;;;;;5007526;28;19956;-57
2022/06/30 02:34:22;;;;;;;;;;;13.90;99.90;;;;;;5008808;28;19928;-58
2022/06/30 02:36:47;;;;;;;;;;;13.80;99.90;;;;;;5011734;28;20048;-56
2022/06/30 02:39:13;;;;;;;;;;;13.80;99.90;;;;;;5006227;28;19921;-55
2022/06/30 02:41:39;;;;;;;;;;;14.00;99.90;;;;;;4989760;28;19914;-56
2022/06/30 02:44:04;;;;;;;;;;;13.90;99.90;;;;;;5003625;28;20372;-56
2022/06/30 02:46:30;;;;;;;;;;;13.90;99.90;;;;;;5007059;28;19917;-58
2022/06/30 02:48:55;;;;;;;;;;;13.80;99.90;;;;;;5009149;28;19913;-57
2022/06/30 02:51:21;;;;;;;;;;;13.90;99.90;;;;;;5003291;28;19917;-57
2022/06/30 02:53:47;;;;;;;;;;;13.90;99.90;;;;;;5009397;28;19928;-53
2022/06/30 02:56:12;;;;;;;;;;;13.90;99.90;;;;;;5005640;28;19913;-56
2022/06/30 02:58:38;;;;;;;;;;;13.80;99.90;;;;;;5007792;28;20245;-56
2022/06/30 03:01:04;;;;;;;;;;;13.90;99.90;;;;;;5005537;28;19921;-58
2022/06/30 03:03:30;;;;;;;;;;;13.90;99.90;;;;;;5004657;28;20326;-58
2022/06/30 03:05:55;;;;;;;;;;;13.90;99.90;;;;;;5010125;28;19917;-58
2022/06/30 03:08:21;;;;;;;;;;;14.00;99.90;;;;;;5008471;28;19924;-56
2022/06/30 03:10:46;;;;;;;;;;;14.00;99.90;;;;;;5001788;28;20000;-55
2022/06/30 03:13:12;;;;;;;;;;;14.10;99.90;;;;;;5010740;28;19914;-57
2022/06/30 03:15:37;;;;;;;;;;;14.20;99.90;;;;;;5009549;28;20375;-54
2022/06/30 03:18:03;;;;;;;;;;;14.20;99.90;;;;;;5004660;28;20313;-57
2022/06/30 03:20:29;;;;;;;;;;;14.30;99.90;;;;;;5009027;28;20430;-57
2022/06/30 03:22:54;;;;;;;;;;;14.40;99.90;;;;;;5006840;28;20259;-55
2022/06/30 03:25:20;;;;;;;;;;;14.40;99.90;;;;;;5002692;28;19921;-56
2022/06/30 03:27:46;;;;;;;;;;;14.30;99.90;;;;;;5011567;28;19917;-56
2022/06/30 03:30:11;;;;;;;;;;;14.30;99.90;;;;;;5009711;28;20718;-57
2022/06/30 03:32:37;;;;;;;;;;;14.30;99.90;;;;;;5005364;28;19914;-54
2022/06/30 03:35:04;;;;;;;;;;;14.30;99.90;;;;;;5006902;28;19914;-57
2022/06/30 03:37:29;;;;;;;;;;;14.20;99.90;;;;;;5004431;28;19967;-53
2022/06/30 03:39:55;;;;;;;;;;;14.20;99.90;;;;;;5007711;28;20326;-58
2022/06/30 03:42:20;;;;;;;;;;;14.20;99.90;;;;;;5004925;28;20977;-53
2022/06/30 03:44:49;;;;;;;;;;;14.10;99.90;;;;;;5001621;28;19917;-57
2022/06/30 03:47:14;;;;;;;;;;;14.00;99.90;;;;;;5007244;28;20020;-55
2022/06/30 03:49:40;;;;;;;;;;;14.00;99.90;;;;;;5008380;28;20429;-56
2022/06/30 03:52:07;;;;;;;;;;;13.90;99.90;;;;;;5002883;28;20008;-57
2022/06/30 03:54:33;;;;;;;;;;;13.80;99.90;;;;;;5004573;28;19976;-55
2022/06/30 03:56:58;;;;;;;;;;;13.80;99.90;;;;;;5007784;28;20363;-57
2022/06/30 03:59:24;;;;;;;;;;;13.70;99.90;;;;;;4992906;28;19913;-57
2022/06/30 04:01:49;;;;;;;;;;;13.80;99.90;;;;;;5008374;28;20367;-58
2022/06/30 04:04:15;;;;;;;;;;;13.70;99.90;;;;;;5008304;28;19933;-55
2022/06/30 04:06:40;;;;;;;;;;;13.70;99.90;;;;;;5011756;28;19917;-58
2022/06/30 04:09:06;;;;;;;;;;;13.60;99.90;;;;;;5010116;28;19957;-59
2022/06/30 04:11:32;;;;;;;;;;;13.40;99.90;;;;;;5006884;28;20279;-57
2022/06/30 04:13:58;;;;;;;;;;;13.30;99.90;;;;;;5009229;28;19914;-56
2022/06/30 04:16:23;;;;;;;;;;;13.20;99.90;;;;;;5007641;28;19921;-58
2022/06/30 04:18:49;;;;;;;;;;;13.20;99.90;;;;;;5006516;28;19913;-56
2022/06/30 04:21:16;;;;;;;;;;;13.10;99.90;;;;;;5006400;28;19961;-57
2022/06/30 04:23:42;;;;;;;;;;;12.90;99.90;;;;;;5005946;28;19929;-57
2022/06/30 04:26:08;;;;;;;;;;;12.90;99.90;;;;;;5008762;28;19972;-58
2022/06/30 04:28:33;;;;;;;;;;;12.80;99.90;;;;;;5007292;28;20498;-57
2022/06/30 04:33:43;;;;;;;;;;;12.70;99.90;;;;;;5006147;28;19983;-57
2022/06/30 04:36:09;;;;;;;;;;;12.70;99.90;;;;;;5002900;28;20340;-56
2022/06/30 04:38:34;;;;;;;;;;;12.60;99.90;;;;;;5002090;28;19972;-58
2022/06/30 04:43:44;;;;;;;;;;;12.70;99.90;;;;;;5002404;28;19968;-57
2022/06/30 04:46:10;;;;;;;;;;;12.60;99.90;;;;;;4990987;28;20371;-55
2022/06/30 04:48:38;;;;;;;;;;;12.50;99.90;;;;;;5008004;28;20012;-56
2022/06/30 04:51:04;;;;;;;;;;;12.50;99.90;;;;;;4988722;28;19914;-56
2022/06/30 04:53:29;;;;;;;;;;;12.60;99.90;;;;;;5001900;28;20334;-53
2022/06/30 04:55:55;;;;;;;;;;;12.50;99.90;;;;;;5003081;28;20360;-55
2022/06/30 04:58:20;;;;;;;;;;;12.40;99.90;;;;;;5006316;28;19917;-55
2022/06/30 05:00:47;;;;;;;;;;;12.40;99.90;;;;;;5003398;28;20343;-57
2022/06/30 05:03:13;;;;;;;;;;;12.50;99.90;;;;;;5005571;28;19936;-55
2022/06/30 05:05:38;;;;;;;;;;;12.50;99.90;;;;;;5006181;28;19918;-54
2022/06/30 05:08:04;;;;;;;;;;;12.50;99.90;;;;;;5006342;28;19917;-56
2022/06/30 05:10:30;;;;;;;;;;;12.40;99.90;;;;;;4985313;28;19990;-58
2022/06/30 05:12:55;;;;;;;;;;;12.30;99.90;;;;;;4991370;28;20417;-54
2022/06/30 05:15:21;;;;;;;;;;;12.40;99.90;;;;;;5005354;28;19914;-57
2022/06/30 05:17:46;;;;;;;;;;;12.40;99.90;;;;;;5007178;28;19914;-57
2022/06/30 05:20:12;;;;;;;;;;;12.50;99.90;;;;;;5005153;28;19956;-57
2022/06/30 05:22:38;;;;;;;;;;;12.50;99.90;;;;;;5006322;28;20009;-56
2022/06/30 05:27:50;;;;;;;;;;;12.70;99.90;;;;;;5007352;28;19975;-57
2022/06/30 05:30:16;;;;;;;;;;;12.80;99.90;;;;;;5002527;28;19913;-56
2022/06/30 05:32:42;;;;;;;;;;;12.90;99.90;;;;;;4991485;28;19913;-56
2022/06/30 05:35:08;;;;;;;;;;;12.80;99.90;;;;;;5002040;28;19953;-56
2022/06/30 05:37:34;;;;;;;;;;;12.80;99.90;;;;;;5001345;28;19961;-57
2022/06/30 05:39:59;;;;;;;;;;;12.80;99.90;;;;;;5004773;28;19925;-57
2022/06/30 05:42:28;;;;;;;;;;;12.80;99.90;;;;;;5004074;28;20009;-56
2022/06/30 05:44:54;;;;;;;;;;;12.80;99.90;;;;;;5000963;28;20413;-56
2022/06/30 05:47:20;;;;;;;;;;;12.80;99.90;;;;;;5006242;28;19917;-56
2022/06/30 05:49:45;;;;;;;;;;;13.00;99.90;;;;;;5002967;28;20813;-58
2022/06/30 05:52:11;;;;;;;;;;;13.10;99.90;;;;;;5005576;28;19920;-58
2022/06/30 05:54:36;;;;;;;;;;;13.00;99.90;;;;;;5003829;28;19952;-53
2022/06/30 05:57:02;;;;;;;;;;;13.10;99.90;;;;;;5002632;28;19914;-58
2022/06/30 05:59:28;;;;;;;;;;;13.10;99.90;;;;;;5003507;28;19913;-59
2022/06/30 06:01:54;;;;;;;;;;;13.20;99.90;;;;;;5001277;28;19967;-57
2022/06/30 06:04:19;;;;;;;;;;;13.20;99.90;;;;;;5002165;28;19940;-55
2022/06/30 06:06:45;;;;;;;;;;;13.40;99.90;;;;;;5005497;28;20296;-56
2022/06/30 06:09:10;;;;;;;;;;;13.40;99.90;;;;;;4999613;28;19996;-58
2022/06/30 06:11:36;;;;;;;;;;;13.50;99.90;;;;;;5005405;28;19913;-57
2022/06/30 06:14:01;;;;;;;;;;;13.50;99.90;;;;;;5004453;28;19914;-59
2022/06/30 06:16:27;;;;;;;;;;;13.70;99.90;;;;;;5009476;28;19968;-55
2022/06/30 06:18:53;;;;;;;;;;;13.80;99.90;;;;;;5004730;28;20363;-58
2022/06/30 06:21:18;;;;;;;;;;;13.70;99.90;;;;;;5001221;28;20283;-59
2022/06/30 06:23:44;;;;;;;;;;;13.80;99.90;;;;;;5006153;28;19913;-58
2022/06/30 06:26:10;;;;;;;;;;;13.90;99.90;;;;;;5004230;28;20359;-59
2022/06/30 06:31:19;;;;;;;;;;;14.60;99.90;;;;;;5003173;28;19936;-57
2022/06/30 06:33:46;;;;;;;;;;;14.80;99.90;;;;;;5003853;28;19914;-58
2022/06/30 06:36:12;;;;;;;;;;;15.00;99.90;;;;;;5005653;28;19928;-61
2022/06/30 06:38:37;;;;;;;;;;;15.20;99.90;;;;;;4985132;28;19921;-58
2022/06/30 06:41:04;;;;;;;;;;;15.40;99.90;;;;;;5003925;28;20406;-57
2022/06/30 06:43:30;;;;;;;;;;;15.60;99.90;;;;;;5001748;28;20077;-57
2022/06/30 06:45:55;;;;;;;;;;;15.50;99.90;;;;;;5000983;28;19918;-58
2022/06/30 06:48:22;;;;;;;;;;;15.60;99.90;;;;;;5006945;28;19918;-57
2022/06/30 06:50:47;;;;;;;;;;;15.70;99.90;;;;;;5007490;28;19943;-59
2022/06/30 06:53:13;;;;;;;;;;;15.80;99.90;;;;;;5005526;28;19924;-57
2022/06/30 06:55:38;;;;;;;;;;;16.10;99.90;;;;;;5006615;28;19977;-58
2022/06/30 06:58:05;;;;;;;;;;;16.20;99.90;;;;;;5006853;28;19920;-55
2022/06/30 07:00:30;;;;;;;;;;;16.20;99.90;;;;;;5003333;28;20017;-57
2022/06/30 07:02:56;;;;;;;;;;;16.30;99.90;;;;;;5004108;28;20052;-57
2022/06/30 07:05:22;;;;;;;;;;;16.30;99.90;;;;;;5004026;28;19926;-59
2022/06/30 07:07:55;;;;;;;;;;;16.30;99.90;;;;;;5002290;28;19917;-56
2022/06/30 07:10:20;;;;;;;;;;;16.40;99.90;;;;;;5002402;28;19941;-58
2022/06/30 07:12:46;;;;;;;;;;;16.60;99.90;;;;;;5003756;28;19917;-60
2022/06/30 07:15:11;;;;;;;;;;;16.60;99.90;;;;;;5004481;28;19917;-57
2022/06/30 07:17:37;;;;;;;;;;;16.50;99.90;;;;;;5010664;28;20359;-55
2022/06/30 07:20:03;;;;;;;;;;;16.40;99.90;;;;;;5009823;28;19952;-59
2022/06/30 07:22:28;;;;;;;;;;;16.40;99.90;;;;;;4991677;28;19913;-54
2022/06/30 07:24:54;;;;;;;;;;;16.30;99.90;;;;;;5008440;28;19925;-58
2022/06/30 07:27:20;;;;;;;;;;;16.20;99.90;;;;;;5006268;28;19971;-59
2022/06/30 07:29:45;;;;;;;;;;;16.10;99.90;;;;;;5008203;28;20203;-58
2022/06/30 07:32:13;;;;;;;;;;;16.10;99.90;;;;;;4990608;28;20314;-59
2022/06/30 07:34:38;;;;;;;;;;;16.30;99.90;;;;;;5005635;28;20282;-57
2022/06/30 07:37:04;;;;;;;;;;;16.30;99.90;;;;;;5005456;28;20000;-59
2022/06/30 07:39:30;;;;;;;;;;;16.30;99.90;;;;;;5002851;28;19921;-56
2022/06/30 07:41:55;;;;;;;;;;;16.30;99.90;;;;;;5006349;28;19913;-57
2022/06/30 07:44:21;;;;;;;;;;;16.40;99.90;;;;;;5005052;28;19921;-54
2022/06/30 07:46:47;;;;;;;;;;;16.40;99.90;;;;;;5007140;28;19918;-54
2022/06/30 07:49:12;;;;;;;;;;;16.40;99.90;;;;;;5009704;28;20427;-54
2022/06/30 07:51:38;;;;;;;;;;;16.40;99.90;;;;;;5005828;28;19914;-56
2022/06/30 07:54:03;;;;;;;;;;;16.40;99.90;;;;;;5004763;28;19913;-58
2022/06/30 07:56:31;;;;;;;;;;;16.50;99.90;;;;;;5006251;28;20100;-57
2022/06/30 07:58:57;;;;;;;;;;;16.50;99.90;;;;;;5006596;28;20398;-58
2022/06/30 08:01:23;;;;;;;;;;;16.50;99.90;;;;;;5007374;28;19945;-58
2022/06/30 08:03:49;;;;;;;;;;;16.40;99.90;;;;;;5004809;28;19920;-57
2022/06/30 08:06:15;;;;;;;;;;;16.30;99.90;;;;;;5010077;28;19929;-58
2022/06/30 08:08:40;;;;;;;;;;;16.30;99.90;;;;;;5002812;28;19917;-56
2022/06/30 08:11:06;;;;;;;;;;;16.20;99.90;;;;;;5010274;28;19910;-58
2022/06/30 08:13:32;;;;;;;;;;;16.10;99.90;;;;;;4990020;28;19913;-56
2022/06/30 08:15:57;;;;;;;;;;;16.00;99.90;;;;;;5006899;28;20012;-57
2022/06/30 08:18:23;;;;;;;;;;;16.00;99.90;;;;;;5005653;28;19923;-58
2022/06/30 08:20:50;;;;;;;;;;;15.90;99.90;;;;;;4991511;28;19927;-60
2022/06/30 08:23:15;;;;;;;;;;;15.80;99.90;;;;;;5002864;28;20284;-57
2022/06/30 08:25:41;;;;;;;;;;;15.80;99.90;;;;;;5004354;28;19924;-58
2022/06/30 08:28:08;;;;;;;;;;;15.80;99.90;;;;;;4989944;28;20367;-59
2022/06/30 08:30:33;;;;;;;;;;;16.20;99.90;;;;;;5005109;28;19949;-58
2022/06/30 08:32:59;;;;;;;;;;;16.50;99.90;;;;;;5005782;28;19961;-55
2022/06/30 08:35:25;;;;;;;;;;;16.50;99.90;;;;;;5006074;28;19914;-55
2022/06/30 08:37:50;;;;;;;;;;;16.60;99.90;;;;;;4988576;28;20426;-59
2022/06/30 08:43:03;;;;;;;;;;;16.70;99.90;;;;;;5004643;28;20001;-59
2022/06/30 08:45:29;;;;;;;;;;;16.70;99.90;;;;;;5002898;28;19918;-58
2022/06/30 08:47:55;;;;;;;;;;;16.60;99.90;;;;;;5007356;28;19951;-57
2022/06/30 08:50:21;;;;;;;;;;;16.60;99.90;;;;;;5001627;28;20009;-58
2022/06/30 08:52:51;;;;;;;;;;;16.60;99.90;;;;;;5006169;28;19914;-57
2022/06/30 08:55:18;;;;;;;;;;;16.60;99.90;;;;;;4997183;28;19914;-60
2022/06/30 08:57:45;;;;;;;;;;;16.70;99.90;;;;;;5011756;28;20274;-56
2022/06/30 09:00:12;;;;;;;;;;;16.70;99.90;;;;;;5011349;28;19981;-57
2022/06/30 09:02:37;;;;;;;;;;;16.90;99.90;;;;;;4980097;28;19921;-54
2022/06/30 09:05:03;;;;;;;;;;;17.00;99.90;;;;;;4990508;28;19921;-59
2022/06/30 09:07:30;;;;;;;;;;;17.10;99.90;;;;;;4988806;28;20383;-61
2022/06/30 09:09:55;;;;;;;;;;;17.20;99.90;;;;;;5009839;28;19914;-56
2022/06/30 09:12:21;;;;;;;;;;;17.30;99.90;;;;;;5007311;28;20327;-55
2022/06/30 09:14:48;;;;;;;;;;;17.60;99.90;;;;;;5009187;28;20692;-58
2022/06/30 09:17:18;;;;;;;;;;;17.70;99.90;;;;;;5009862;28;19929;-59
2022/06/30 09:19:50;;;;;;;;;;;17.80;99.90;;;;;;5009016;28;19917;-59
2022/06/30 09:22:16;;;;;;;;;;;17.90;99.90;;;;;;5006833;28;19920;-59
2022/06/30 09:24:42;;;;;;;;;;;18.00;99.90;;;;;;4983561;28;20008;-59
2022/06/30 09:27:29;;;;;;;;;;;18.00;99.90;;;;;;5008888;28;19930;-57
2022/06/30 09:29:56;;;;;;;;;;;18.10;99.90;;;;;;5003454;28;20357;-59
2022/06/30 09:32:22;;;;;;;;;;;18.10;99.90;;;;;;5009930;28;19914;-58
2022/06/30 09:34:49;;;;;;;;;;;18.00;99.90;;;;;;4985493;28;19924;-56
2022/06/30 09:37:16;;;;;;;;;;;18.00;99.90;;;;;;5003978;28;20382;-58
2022/06/30 09:39:43;;;;;;;;;;;18.10;99.90;;;;;;5012328;28;19940;-59
2022/06/30 09:42:09;;;;;;;;;;;18.10;99.90;;;;;;4991848;28;19976;-58
2022/06/30 09:44:35;;;;;;;;;;;18.30;99.20;;;;;;5003395;28;20378;-60
2022/06/30 09:47:08;;;;;;;;;;;18.60;97.80;;;;;;5003576;28;19928;-56
2022/06/30 09:49:39;;;;;;;;;;;18.70;97.50;;;;;;5012404;28;20382;-60
2022/06/30 09:52:25;;;;;;;;;;;18.80;96.60;;;;;;5001613;28;20417;-56
2022/06/30 09:55:04;;;;;;;;;;;18.80;96.50;;;;;;5006019;28;19917;-54
2022/06/30 09:57:31;;;;;;;;;;;18.70;96.30;;;;;;5011300;28;19918;-56
2022/06/30 10:00:03;;;;;;;;;;;18.60;96.80;;;;;;4999488;28;20356;-57
2022/06/30 10:02:29;;;;;;;;;;;18.60;97.20;;;;;;5001901;28;20371;-59
2022/06/30 10:04:56;;;;;;;;;;;18.60;97.50;;;;;;5005512;28;20322;-57
2022/06/30 10:07:22;;;;;;;;;;;18.70;97.30;;;;;;5006641;28;20012;-59
2022/06/30 10:09:48;;;;;;;;;;;18.80;96.60;;;;;;5001504;28;20436;-60
2022/06/30 10:12:14;;;;;;;;;;;18.70;96.20;;;;;;5000901;28;19918;-59
2022/06/30 10:14:40;;;;;;;;;;;18.70;95.80;;;;;;4985496;28;19925;-58
2022/06/30 10:17:07;;;;;;;;;;;18.70;97.40;;;;;;5004939;28;19960;-56
2022/06/30 10:19:33;;;;;;;;;;;18.50;98.10;;;;;;4989289;28;20008;-57
2022/06/30 10:21:59;;;;;;;;;;;18.30;98.30;;;;;;5009207;28;20017;-57
2022/06/30 10:24:24;;;;;;;;;;;18.20;99.20;;;;;;5006223;28;19929;-56
2022/06/30 10:29:35;;;;;;;;;;;18.30;98.50;;;;;;5007917;28;20379;-59
2022/06/30 10:32:03;;;;;;;;;;;18.20;98.10;;;;;;5008731;28;19913;-55
2022/06/30 10:34:35;;;;;;;;;;;18.20;98.00;;;;;;5006668;28;19967;-59
2022/06/30 10:37:04;;;;;;;;;;;18.30;96.30;;;;;;5001603;28;19921;-59
2022/06/30 10:39:41;;;;;;;;;;;18.40;96.40;;;;;;5005943;28;19920;-58
2022/06/30 10:42:07;;;;;;;;;;;18.70;95.90;;;;;;5009990;28;20406;-55
2022/06/30 10:44:33;;;;;;;;;;;18.80;95.90;;;;;;4999218;28;19971;-59
2022/06/30 10:46:58;;;;;;;;;;;18.80;95.90;;;;;;5014078;28;19918;-59
2022/06/30 10:49:24;;;;;;;;;;;19.00;96.10;;;;;;5006715;28;20355;-56
2022/06/30 10:51:51;;;;;;;;;;;19.20;95.80;;;;;;5009285;28;19925;-57
2022/06/30 10:54:33;;;;;;;;;;;19.40;94.90;;;;;;5010345;28;19914;-58
2022/06/30 10:56:59;;;;;;;;;;;19.80;92.90;;;;;;5004352;28;19925;-57
2022/06/30 10:59:29;;;;;;;;;;;19.80;92.80;;;;;;5001451;28;20198;-57
2022/06/30 11:02:06;;;;;;;;;;;19.60;93.20;;;;;;4996764;28;19914;-60
2022/06/30 11:04:32;;;;;;;;;;;19.70;93.10;;;;;;5006388;28;19914;-59
2022/06/30 11:07:14;;;;;;;;;;;19.80;91.70;;;;;;5011282;28;20012;-59
2022/06/30 11:09:54;;;;;;;;;;;19.90;91.50;;;;;;5005430;28;19921;-59
2022/06/30 11:12:24;;;;;;;;;;;20.00;91.60;;;;;;5005958;28;19949;-62
2022/06/30 11:14:54;;;;;;;;;;;20.00;91.30;;;;;;5009379;28;20454;-58
2022/06/30 11:17:20;;;;;;;;;;;19.80;91.30;;;;;;4999703;28;20619;-59
2022/06/30 11:19:49;;;;;;;;;;;19.70;91.50;;;;;;4990150;28;19917;-57
2022/06/30 11:22:16;;;;;;;;;;;19.60;91.90;;;;;;4985068;28;20260;-58
2022/06/30 11:24:42;;;;;;;;;;;19.80;92.20;;;;;;4985666;28;20410;-59
2022/06/30 11:27:20;;;;;;;;;;;19.80;92.30;;;;;;4986988;28;20461;-56
2022/06/30 11:29:46;;;;;;;;;;;19.70;92.50;;;;;;4986868;28;20354;-58
2022/06/30 11:32:12;;;;;;;;;;;19.50;93.10;;;;;;4988844;28;20061;-59
2022/06/30 11:34:40;;;;;;;;;;;19.50;93.30;;;;;;4989118;28;19924;-58
2022/06/30 11:37:06;;;;;;;;;;;19.60;92.90;;;;;;4968903;28;19914;-60
2022/06/30 11:39:32;;;;;;;;;;;19.50;93.20;;;;;;4989152;28;20371;-56
2022/06/30 11:41:59;;;;;;;;;;;19.40;94.10;;;;;;4994320;28;19917;-57
2022/06/30 11:44:37;;;;;;;;;;;19.50;93.40;;;;;;4990452;28;19914;-55
2022/06/30 11:47:04;;;;;;;;;;;19.70;93.60;;;;;;4972129;28;20244;-61
2022/06/30 11:49:42;;;;;;;;;;;19.90;94.10;;;;;;4986155;28;19936;-58
2022/06/30 11:52:09;;;;;;;;;;;20.10;94.30;;;;;;4986569;28;20056;-57
2022/06/30 11:54:35;;;;;;;;;;;20.00;93.80;;;;;;4969487;28;19921;-59
2022/06/30 11:57:01;;;;;;;;;;;19.80;95.30;;;;;;4983517;28;19941;-58
2022/06/30 11:59:26;;;;;;;;;;;19.90;95.70;;;;;;4987540;28;19930;-55
2022/06/30 12:02:02;;;;;;;;;;;20.00;94.90;;;;;;4986101;28;19988;-56
2022/06/30 12:04:28;;;;;;;;;;;20.10;95.10;;;;;;4970443;28;19917;-57
2022/06/30 12:06:53;;;;;;;;;;;20.30;91.80;;;;;;4989542;28;19929;-55
2022/06/30 12:09:19;;;;;;;;;;;20.60;88.50;;;;;;4988839;28;20356;-58
2022/06/30 12:11:47;;;;;;;;;;;20.20;87.40;;;;;;4985590;28;19914;-58
2022/06/30 12:14:15;;;;;;;;;;;20.20;87.80;;;;;;4989758;28;19921;-61
2022/06/30 12:16:41;;;;;;;;;;;20.30;93.10;;;;;;4987271;28;20396;-60
2022/06/30 12:19:07;;;;;;;;;;;20.20;97.20;;;;;;5007225;28;19996;-59
2022/06/30 12:21:33;;;;;;;;;;;20.00;98.80;;;;;;5008365;28;19914;-59
2022/06/30 12:23:59;;;;;;;;;;;19.80;99.30;;;;;;5009903;28;19916;-58
2022/06/30 12:26:25;;;;;;;;;;;19.90;99.90;;;;;;5004736;28;19917;-61
2022/06/30 12:28:55;;;;;;;;;;;19.60;99.90;;;;;;4992529;28;19925;-60
2022/06/30 12:31:24;;;;;;;;;;;19.70;99.90;;;;;;4989101;28;19921;-58
2022/06/30 12:33:51;;;;;;;;;;;19.40;99.90;;;;;;5007165;28;19913;-60
2022/06/30 12:36:17;;;;;;;;;;;19.20;99.90;;;;;;5008387;28;20054;-59
2022/06/30 12:38:43;;;;;;;;;;;19.10;99.90;;;;;;4986644;28;19914;-61
2022/06/30 12:41:14;;;;;;;;;;;19.10;99.90;;;;;;5007266;28;20386;-61
2022/06/30 12:43:49;;;;;;;;;;;19.30;99.90;;;;;;5009456;28;20528;-58
2022/06/30 12:46:19;;;;;;;;;;;19.50;99.90;;;;;;4991330;28;20390;-57
2022/06/30 12:49:03;;;;;;;;;;;19.60;98.10;;;;;;4987843;28;19953;-59
2022/06/30 12:51:29;;;;;;;;;;;19.80;95.90;;;;;;5006713;28;19913;-58
2022/06/30 12:54:06;;;;;;;;;;;20.10;96.60;;;;;;5005926;28;20038;-55
2022/06/30 12:56:32;;;;;;;;;;;20.30;95.60;;;;;;5012082;28;19917;-57
2022/06/30 12:59:03;;;;;;;;;;;20.40;92.90;;;;;;5006744;28;19939;-58
2022/06/30 13:01:29;;;;;;;;;;;20.40;92.40;;;;;;5005087;28;19963;-58
2022/06/30 13:04:00;;;;;;;;;;;20.00;92.60;;;;;;5001259;28;20252;-60
2022/06/30 13:06:27;;;;;;;;;;;19.60;93.60;;;;;;4990652;28;19921;-59
2022/06/30 13:08:53;;;;;;;;;;;19.60;94.20;;;;;;5007679;28;19929;-58
2022/06/30 13:11:26;;;;;;;;;;;19.70;93.60;;;;;;5006729;28;19914;-55
2022/06/30 13:13:53;;;;;;;;;;;19.70;94.00;;;;;;5005290;28;19917;-57
2022/06/30 13:16:18;;;;;;;;;;;19.60;93.50;;;;;;5007040;28;20294;-58
2022/06/30 13:18:46;;;;;;;;;;;19.40;93.40;;;;;;5000101;28;19944;-58
2022/06/30 13:21:12;;;;;;;;;;;19.30;93.10;;;;;;5007912;28;19996;-58
2022/06/30 13:23:37;;;;;;;;;;;19.40;92.70;;;;;;5004275;28;20612;-58
2022/06/30 13:26:03;;;;;;;;;;;19.10;95.90;;;;;;5005363;28;19925;-60
2022/06/30 13:28:29;;;;;;;;;;;18.90;98.80;;;;;;4991807;28;19959;-59
2022/06/30 13:30:55;;;;;;;;;;;18.50;99.90;;;;;;4998841;28;20341;-57
2022/06/30 13:33:20;;;;;;;;;;;18.10;99.90;;;;;;4985651;28;20004;-58
2022/06/30 13:35:46;;;;;;;;;;;17.60;99.90;;;;;;5007656;28;20026;-55
2022/06/30 13:38:12;;;;;;;;;;;17.40;99.90;;;;;;5003555;28;19914;-57
2022/06/30 13:40:38;;;;;;;;;;;17.10;99.90;;;;;;5004989;28;20260;-57
2022/06/30 13:43:04;;;;;;;;;;;16.70;99.90;;;;;;5005810;28;19997;-56
2022/06/30 13:45:30;;;;;;;;;;;16.50;99.90;;;;;;5004459;28;19940;-56
2022/06/30 13:47:56;;;;;;;;;;;16.20;99.90;;;;;;4997791;28;19918;-57
2022/06/30 13:50:22;;;;;;;;;;;16.30;99.90;;;;;;4990913;28;19913;-60
2022/06/30 13:52:48;;;;;;;;;;;16.40;99.90;;;;;;5007896;28;19945;-58
2022/06/30 13:55:13;;;;;;;;;;;16.40;99.90;;;;;;5005574;28;20356;-57
2022/06/30 13:57:39;;;;;;;;;;;16.40;99.90;;;;;;5001543;28;19920;-57
2022/06/30 14:00:06;;;;;;;;;;;16.30;99.90;;;;;;4992406;28;20374;-56
2022/06/30 14:02:31;;;;;;;;;;;16.30;99.90;;;;;;5003087;28;20268;-57
2022/06/30 14:04:59;;;;;;;;;;;16.10;99.90;;;;;;5009359;28;19972;-56
2022/06/30 14:07:26;;;;;;;;;;;15.90;99.90;;;;;;5008421;28;19918;-54
2022/06/30 14:09:52;;;;;;;;;;;15.90;99.90;;;;;;5005455;28;20722;-55
2022/06/30 14:12:19;;;;;;;;;;;15.90;99.90;;;;;;4987956;28;20080;-58
2022/06/30 14:14:45;;;;;;;;;;;15.90;99.90;;;;;;5001957;28;21064;-56
2022/06/30 14:17:11;;;;;;;;;;;15.90;99.90;;;;;;5003239;28;20028;-59
2022/06/30 14:19:36;;;;;;;;;;;15.80;99.90;;;;;;4999666;28;20287;-57
2022/06/30 14:22:02;;;;;;;;;;;15.80;99.90;;;;;;5005430;28;19913;-57
2022/06/30 14:24:29;;;;;;;;;;;15.80;99.90;;;;;;4997797;28;20362;-58
2022/06/30 14:26:55;;;;;;;;;;;15.80;99.90;;;;;;4998337;28;19929;-57
2022/06/30 14:29:21;;;;;;;;;;;15.80;99.90;;;;;;5010051;28;20274;-57
2022/06/30 14:31:47;;;;;;;;;;;15.80;99.90;;;;;;4997300;28;19914;-60
2022/06/30 14:34:12;;;;;;;;;;;15.80;99.90;;;;;;4999423;28;19925;-56